Time;durP1;ratioP1;P1;durP2;ratioP2;P2;SDS_P1;SDS_P2;PMS_P1;PMS_P2;Temp;Humidity;BMP_temperature;BMP_pressure;BME280_temperature;BME280_humidity;BME280_pressure;Samples;Min_cycle;Max_cycle;Signal;HPM_P1;HPM_P2
2021/07/31 14:30:15;;;;;;;2.42;0.75;;;;;;;34.62;19.27;100570.81;6282320;22;20336;-49
2021/07/31 14:32:41;;;;;;;1.80;0.70;;;;;;;32.55;21.09;100559.69;6185229;22;1376941;-50
2021/07/31 14:35:10;;;;;;;1.83;1.00;;;;;;;31.05;22.66;100553.38;6244670;22;20015;-48
2021/07/31 14:37:36;;;;;;;1.27;0.82;;;;;;;29.72;24.15;100562.91;6246075;22;20075;-47
2021/07/31 14:40:02;;;;;;;3.88;1.20;;;;;;;30.12;24.21;100565.97;6245446;22;19996;-48
2021/07/31 14:42:27;;;;;;;4.55;0.82;;;;;;;32.60;21.77;100567.59;6245447;23;20011;-48
2021/07/31 14:44:53;;;;;;;2.30;0.60;;;;;;;32.27;21.21;100557.81;6245926;22;20030;-47
2021/07/31 14:47:18;;;;;;;2.63;0.80;;;;;;;29.84;24.49;100559.06;6246129;22;20000;-48
2021/07/31 14:49:44;;;;;;;5.25;0.70;;;;;;;28.56;25.65;100572.28;6244365;22;20085;-49
2021/07/31 14:52:09;;;;;;;3.60;0.77;;;;;;;27.94;26.67;100565.47;6244580;22;20062;-48
2021/07/31 14:54:35;;;;;;;2.67;0.60;;;;;;;26.38;29.33;100575.03;6238567;22;20018;-50
2021/07/31 14:57:00;;;;;;;4.30;1.73;;;;;;;25.49;30.49;100583.03;6239908;22;20015;-48
2021/07/31 14:59:26;;;;;;;1.80;0.80;;;;;;;25.29;30.74;100577.44;6238129;22;20012;-50
2021/07/31 15:01:51;;;;;;;4.75;0.77;;;;;;;25.64;30.32;100573.22;6242037;22;20083;-50
2021/07/31 15:04:16;;;;;;;1.35;0.82;;;;;;;24.94;31.45;100573.69;6242979;22;20004;-51
2021/07/31 15:06:42;;;;;;;1.63;0.80;;;;;;;25.13;31.44;100575.78;6243628;22;20000;-49
2021/07/31 15:09:07;;;;;;;2.92;0.77;;;;;;;24.85;31.83;100597.72;6240732;22;20008;-50
2021/07/31 15:11:33;;;;;;;1.60;0.88;;;;;;;24.50;31.57;100586.50;6237651;22;20015;-49
2021/07/31 15:13:58;;;;;;;3.78;0.90;;;;;;;23.96;32.58;100589.50;6238098;22;20091;-49
2021/07/31 15:16:24;;;;;;;3.75;0.90;;;;;;;23.84;32.96;100594.94;6238469;22;20004;-49
2021/07/31 15:18:49;;;;;;;3.75;0.80;;;;;;;23.96;33.16;100584.81;6238037;22;20011;-51
2021/07/31 15:21:16;;;;;;;2.35;1.10;;;;;;;24.03;33.29;100589.69;6238790;22;20302;-49
2021/07/31 15:23:42;;;;;;;1.85;0.80;;;;;;;24.09;33.36;100588.34;6238313;22;20399;-48
2021/07/31 15:26:08;;;;;;;4.15;0.80;;;;;;;24.56;32.65;100596.06;6238401;22;20000;-50
2021/07/31 15:28:35;;;;;;;0.80;0.68;;;;;;;24.50;33.01;100597.47;6238200;22;20038;-49
2021/07/31 15:31:01;;;;;;;3.45;1.05;;;;;;;24.13;33.39;100592.00;6246946;22;20021;-48
2021/07/31 15:33:27;;;;;;;4.97;0.85;;;;;;;23.96;33.58;100605.91;6268837;22;20034;-51
2021/07/31 15:35:58;;;;;;;4.05;1.05;;;;;;;23.69;33.94;100599.94;6268948;22;20003;-53
2021/07/31 15:38:26;;;;;;;2.13;0.90;;;;;;;24.01;34.03;100602.94;6266890;22;20063;-49
2021/07/31 15:40:51;;;;;;;4.72;1.52;;;;;;;23.67;34.08;100598.69;6268290;22;20065;-48
2021/07/31 15:43:17;;;;;;;0.57;0.57;;;;;;;23.86;34.08;100595.41;6268711;22;20074;-48
2021/07/31 15:45:45;;;;;;;3.65;1.02;;;;;;;23.98;34.13;100607.16;6267768;22;19996;-48
2021/07/31 15:48:10;;;;;;;3.42;1.42;;;;;;;25.45;31.76;100599.41;6268592;22;20026;-50
2021/07/31 15:50:36;;;;;;;3.45;1.05;;;;;;;26.52;29.61;100596.53;6268972;22;20000;-49
2021/07/31 15:53:01;;;;;;;2.63;1.17;;;;;;;26.06;30.08;100596.25;6267224;22;20008;-50
2021/07/31 15:55:27;;;;;;;2.55;1.90;;;;;;;25.29;31.41;100604.06;6268174;22;20419;-49
2021/07/31 15:57:52;;;;;;;3.80;1.70;;;;;;;24.68;32.55;100598.78;6268270;22;20000;-48
2021/07/31 16:00:18;;;;;;;9.75;2.25;;;;;;;24.27;33.59;100589.72;6266133;22;20011;-50
2021/07/31 16:02:44;;;;;;;3.05;2.53;;;;;;;24.35;33.49;100586.06;6242016;22;20022;-49
2021/07/31 16:05:10;;;;;;;4.43;2.00;;;;;;;25.84;31.10;100578.47;6269070;22;20064;-48
2021/07/31 16:07:36;;;;;;;2.28;2.08;;;;;;;26.05;30.81;100586.44;6267680;22;19996;-49
2021/07/31 16:10:03;;;;;;;4.63;1.52;;;;;;;26.25;30.00;100581.00;6268139;22;20003;-51
2021/07/31 16:12:33;;;;;;;4.90;1.88;;;;;;;26.18;30.54;100587.91;6241613;22;20649;-51
2021/07/31 16:14:59;;;;;;;5.03;1.65;;;;;;;25.45;31.52;100593.91;6267775;22;20000;-49
2021/07/31 16:17:24;;;;;;;3.08;1.60;;;;;;;25.38;31.32;100585.50;6269232;22;20057;-49
2021/07/31 16:19:49;;;;;;;2.60;1.88;;;;;;;25.69;31.47;100581.22;6268723;22;20332;-47
2021/07/31 16:22:15;;;;;;;8.63;2.08;;;;;;;27.27;29.08;100581.56;6268367;22;20332;-49
2021/07/31 16:24:41;;;;;;;2.17;1.70;;;;;;;28.57;27.53;100576.63;6267718;22;20597;-49
2021/07/31 16:27:06;;;;;;;7.45;1.80;;;;;;;29.99;25.35;100577.34;6267758;22;20003;-49
2021/07/31 16:29:32;;;;;;;2.35;1.67;;;;;;;29.48;26.15;100574.56;6268204;22;20004;-49
2021/07/31 16:31:57;;;;;;;4.75;1.88;;;;;;;29.48;25.54;100594.66;6268248;22;20039;-49
2021/07/31 16:34:23;;;;;;;3.70;1.52;;;;;;;28.81;26.68;100582.84;6268213;22;20340;-51
2021/07/31 16:36:48;;;;;;;2.30;1.38;;;;;;;27.40;28.52;100592.06;6268095;22;20083;-49
2021/07/31 16:39:14;;;;;;;1.98;1.60;;;;;;;26.04;30.66;100587.59;6268093;22;20225;-49
2021/07/31 16:41:39;;;;;;;1.88;1.20;;;;;;;24.78;32.62;100592.84;6267394;22;20171;-51
2021/07/31 16:44:05;;;;;;;3.15;1.30;;;;;;;24.39;33.89;100591.66;6268199;22;20158;-50
2021/07/31 16:46:30;;;;;;;9.48;1.50;;;;;;;24.13;34.30;100589.25;6266764;22;20039;-49
2021/07/31 16:48:57;;;;;;;3.15;1.23;;;;;;;24.18;34.38;100599.97;6267515;22;20496;-49
2021/07/31 16:51:22;;;;;;;4.65;1.15;;;;;;;24.17;34.18;100595.63;6267441;22;19995;-50
2021/07/31 16:53:48;;;;;;;1.90;1.25;;;;;;;24.59;34.07;100595.38;6269561;22;20015;-51
2021/07/31 16:56:13;;;;;;;2.42;1.25;;;;;;;25.20;33.06;100595.19;6267461;22;20004;-50
2021/07/31 16:58:39;;;;;;;4.60;1.40;;;;;;;26.37;31.26;100594.63;6266431;22;20552;-52
2021/07/31 17:01:04;;;;;;;3.83;1.10;;;;;;;25.33;32.75;100594.00;6256440;22;20339;-50
2021/07/31 17:03:30;;;;;;;3.70;1.40;;;;;;;24.83;33.49;100592.56;6239672;22;20022;-49
2021/07/31 17:06:03;;;;;;;1.92;1.23;;;;;;;24.45;34.29;100595.75;6268982;22;20374;-49
2021/07/31 17:08:37;;;;;;;8.73;4.75;;;;;;;24.20;34.72;100600.41;6241335;22;20003;-49
2021/07/31 17:11:05;;;;;;;2.78;1.70;;;;;;;23.71;35.76;100605.88;6268986;22;20023;-49
2021/07/31 17:13:31;;;;;;;1.98;1.10;;;;;;;23.43;36.67;100611.13;6268905;22;20011;-49
2021/07/31 17:15:57;;;;;;;1.85;1.75;;;;;;;23.28;36.67;100616.44;6269624;22;20390;-48
2021/07/31 17:18:22;;;;;;;2.80;1.10;;;;;;;22.95;37.29;100617.22;6269063;22;20004;-48
2021/07/31 17:20:50;;;;;;;6.72;6.05;;;;;;;22.66;37.94;100615.34;6267807;22;19995;-50
2021/07/31 17:23:16;;;;;;;37.80;25.35;;;;;;;22.86;37.68;100619.22;6270071;22;20327;-49
2021/07/31 17:25:41;;;;;;;3.80;2.83;;;;;;;22.74;37.91;100621.84;6269771;22;20004;-49
2021/07/31 17:28:07;;;;;;;12.32;7.85;;;;;;;22.65;38.31;100623.88;6268395;22;20497;-49
2021/07/31 17:30:33;;;;;;;10.77;9.77;;;;;;;22.59;38.44;100618.56;6269050;22;20007;-51
2021/07/31 17:33:00;;;;;;;6.53;1.92;;;;;;;22.67;38.20;100616.94;6268614;22;20007;-49
2021/07/31 17:35:27;;;;;;;7.63;0.82;;;;;;;22.30;39.51;100613.97;6268324;22;20012;-50
2021/07/31 17:37:55;;;;;;;15.10;13.80;;;;;;;22.72;39.09;100615.94;6267623;22;20080;-49
2021/07/31 17:40:23;;;;;;;108.50;100.47;;;;;;;22.72;38.95;100624.91;6267785;22;20034;-50
2021/07/31 17:42:49;;;;;;;101.45;94.00;;;;;;;22.88;38.91;100620.50;6266111;22;20014;-50
2021/07/31 17:45:15;;;;;;;6.85;6.22;;;;;;;22.53;39.59;100624.56;6267951;22;20011;-50
2021/07/31 17:47:41;;;;;;;12.10;11.20;;;;;;;22.38;40.42;100625.94;6267820;22;20414;-51
2021/07/31 17:50:08;;;;;;;5.05;3.13;;;;;;;22.22;41.08;100612.06;6267990;22;19999;-49
2021/07/31 17:52:33;;;;;;;3.05;2.22;;;;;;;21.98;41.62;100631.72;6267544;22;20104;-49
2021/07/31 17:54:59;;;;;;;3.92;2.88;;;;;;;21.95;41.78;100632.38;6269122;22;20008;-51
2021/07/31 17:57:26;;;;;;;8.43;4.07;;;;;;;22.02;41.61;100635.41;6268661;22;20015;-48
2021/07/31 17:59:52;;;;;;;1.02;0.98;;;;;;;21.97;41.82;100642.97;6268602;22;20007;-49
2021/07/31 18:02:18;;;;;;;2.60;0.90;;;;;;;22.08;41.47;100654.34;6268931;22;20010;-48
2021/07/31 18:04:44;;;;;;;1.75;0.75;;;;;;;22.15;41.22;100644.53;6268619;22;20034;-52
2021/07/31 18:07:12;;;;;;;2.28;0.70;;;;;;;22.26;41.25;100644.94;6268580;22;20346;-49
2021/07/31 18:09:37;;;;;;;2.30;0.90;;;;;;;22.14;41.58;100642.13;6240610;22;20012;-49
2021/07/31 18:12:04;;;;;;;1.15;0.80;;;;;;;22.15;41.65;100646.47;6268006;22;20038;-48
2021/07/31 18:14:30;;;;;;;2.47;0.77;;;;;;;22.15;41.81;100658.16;6268225;22;20022;-49
2021/07/31 18:16:55;;;;;;;2.47;0.90;;;;;;;22.11;42.02;100657.25;6268173;22;20355;-49
2021/07/31 18:19:21;;;;;;;2.53;1.05;;;;;;;22.27;41.78;100646.56;6266387;22;20134;-50
2021/07/31 18:21:48;;;;;;;19.73;11.75;;;;;;;22.01;42.24;100649.38;6268775;22;19999;-50
2021/07/31 18:24:13;;;;;;;3.38;1.02;;;;;;;22.00;42.37;100651.28;6268618;22;20015;-52
2021/07/31 18:26:39;;;;;;;4.80;2.30;;;;;;;22.03;42.29;100653.38;6269087;22;20343;-50
2021/07/31 18:29:06;;;;;;;2.67;0.88;;;;;;;21.87;42.70;100656.97;6268267;22;19999;-49
2021/07/31 18:31:32;;;;;;;2.30;0.88;;;;;;;21.71;42.66;100656.66;6268103;22;20012;-49
2021/07/31 18:33:57;;;;;;;2.65;0.93;;;;;;;21.56;43.27;100658.00;6268320;22;20095;-49
2021/07/31 18:36:23;;;;;;;3.17;1.00;;;;;;;21.52;43.45;100664.41;6268514;22;20075;-48
2021/07/31 18:38:49;;;;;;;1.92;0.80;;;;;;;21.51;43.69;100657.38;6267721;22;20004;-49
2021/07/31 18:41:16;;;;;;;1.83;0.63;;;;;;;21.69;43.12;100670.63;6268873;22;20027;-50
2021/07/31 18:43:42;;;;;;;2.88;0.90;;;;;;;21.52;43.83;100669.88;6241662;22;20007;-49
2021/07/31 18:46:08;;;;;;;2.03;1.15;;;;;;;21.54;43.50;100664.88;6270660;22;20069;-51
2021/07/31 18:48:33;;;;;;;5.65;0.80;;;;;;;21.42;43.73;100669.09;6269927;22;19999;-49
2021/07/31 18:50:59;;;;;;;2.80;1.13;;;;;;;21.37;44.04;100680.16;6270466;22;20003;-48
2021/07/31 18:53:25;;;;;;;3.80;1.05;;;;;;;21.07;44.54;100684.63;6270438;22;20014;-50
2021/07/31 18:55:55;;;;;;;3.60;1.45;;;;;;;21.05;45.13;100683.34;6271204;22;20031;-48
2021/07/31 18:58:23;;;;;;;2.53;1.80;;;;;;;21.01;44.96;100685.09;6271869;22;20332;-47
2021/07/31 19:00:49;;;;;;;3.55;0.77;;;;;;;20.83;45.61;100689.72;6271698;22;20170;-51
2021/07/31 19:03:15;;;;;;;1.90;0.85;;;;;;;20.83;45.52;100694.38;6271407;22;20019;-49
2021/07/31 19:05:41;;;;;;;2.05;1.13;;;;;;;20.79;45.83;100694.97;6271533;22;19999;-48
2021/07/31 19:08:07;;;;;;;1.58;0.98;;;;;;;20.78;45.69;100698.84;6271318;22;19999;-48
2021/07/31 19:10:34;;;;;;;1.42;0.90;;;;;;;20.63;46.22;100701.19;6271933;22;20008;-49
2021/07/31 19:13:10;;;;;;;3.42;0.60;;;;;;;20.68;45.94;100701.88;6271391;22;20011;-49
2021/07/31 19:15:41;;;;;;;2.60;0.70;;;;;;;20.62;46.62;100699.59;6271428;22;20056;-48
2021/07/31 19:18:07;;;;;;;0.70;0.70;;;;;;;20.55;46.89;100701.97;6270649;22;20560;-48
2021/07/31 19:20:33;;;;;;;1.70;1.15;;;;;;;20.51;46.68;100699.09;6272042;22;20523;-48
2021/07/31 19:22:59;;;;;;;2.25;1.10;;;;;;;20.39;47.30;100694.22;6244329;22;20010;-48
2021/07/31 19:25:27;;;;;;;2.00;0.80;;;;;;;20.26;47.66;100694.31;6272313;22;20018;-49
2021/07/31 19:27:53;;;;;;;1.15;0.88;;;;;;;20.34;47.81;100690.84;6271370;22;20065;-50
2021/07/31 19:30:19;;;;;;;2.38;1.15;;;;;;;20.22;48.00;100688.69;6244830;22;20087;-48
2021/07/31 19:32:45;;;;;;;6.25;4.65;;;;;;;20.18;48.29;100688.53;6270175;22;20039;-49
2021/07/31 19:35:11;;;;;;;2.92;1.05;;;;;;;20.17;48.25;100692.38;6271809;22;20046;-49
2021/07/31 19:37:38;;;;;;;2.67;0.80;;;;;;;20.20;48.17;100699.09;6270749;22;20007;-49
2021/07/31 19:40:05;;;;;;;2.22;0.90;;;;;;;20.05;48.70;100703.03;6271157;22;20061;-49
2021/07/31 19:42:31;;;;;;;2.53;1.20;;;;;;;20.03;49.06;100701.75;6271347;22;20007;-50
2021/07/31 19:45:00;;;;;;;2.03;1.38;;;;;;;19.94;49.39;100707.16;6270534;22;20335;-50
2021/07/31 19:47:27;;;;;;;1.38;1.13;;;;;;;19.94;49.23;100703.63;6269967;22;19996;-49
2021/07/31 19:49:54;;;;;;;1.55;0.90;;;;;;;19.97;49.26;100697.56;6270109;22;20068;-49
2021/07/31 19:52:19;;;;;;;3.70;0.98;;;;;;;19.80;49.90;100703.69;6271113;22;20027;-48
2021/07/31 19:54:46;;;;;;;1.08;0.90;;;;;;;19.73;50.10;100706.03;6271235;22;20324;-49
2021/07/31 19:57:14;;;;;;;3.13;0.98;;;;;;;19.79;49.97;100707.53;6271844;22;20007;-48
2021/07/31 19:59:40;;;;;;;1.02;1.00;;;;;;;19.75;49.66;100711.97;6270832;22;20046;-48
2021/07/31 20:02:08;;;;;;;8.05;3.72;;;;;;;19.78;49.99;100708.66;6269977;22;20015;-49
2021/07/31 20:04:34;;;;;;;6.03;4.22;;;;;;;19.78;50.01;100722.25;6270470;22;20011;-49
2021/07/31 20:07:04;;;;;;;4.72;3.13;;;;;;;19.74;50.12;100715.78;6269745;22;20388;-50
2021/07/31 20:09:30;;;;;;;3.10;1.08;;;;;;;19.55;50.89;100729.56;6269734;22;20010;-49
2021/07/31 20:11:57;;;;;;;4.13;1.00;;;;;;;19.58;50.87;100721.63;6271074;22;20031;-48
2021/07/31 20:14:23;;;;;;;3.92;1.08;;;;;;;19.41;51.45;100724.19;6267853;22;20008;-50
2021/07/31 20:16:49;;;;;;;3.55;1.10;;;;;;;19.41;51.27;100731.53;6268732;22;20129;-50
2021/07/31 20:19:15;;;;;;;2.22;1.10;;;;;;;19.38;51.74;100734.84;6269074;22;20011;-51
2021/07/31 20:21:41;;;;;;;2.33;1.10;;;;;;;19.18;52.24;100741.53;6254359;22;20012;-74
2021/07/31 20:24:06;;;;;;;3.33;1.00;;;;;;;19.17;52.26;100735.31;6234470;23;20336;-74
2021/07/31 20:26:32;;;;;;;3.45;1.02;;;;;;;19.24;51.99;100737.63;6236676;22;20015;-74
2021/07/31 20:28:58;;;;;;;6.65;1.63;;;;;;;19.29;51.91;100730.16;6236263;23;20087;-74
2021/07/31 20:31:23;;;;;;;4.05;3.03;;;;;;;19.30;51.70;100739.09;6236722;23;20000;-74
2021/07/31 20:33:49;;;;;;;2.95;1.40;;;;;;;19.22;52.01;100740.63;6235228;23;20008;-74
2021/07/31 20:36:14;;;;;;;5.53;3.13;;;;;;;19.20;52.45;100744.75;6236350;22;20008;-74
2021/07/31 20:38:40;;;;;;;3.25;1.20;;;;;;;19.14;52.52;100748.69;6235955;23;20004;-74
2021/07/31 20:41:05;;;;;;;14.25;8.13;;;;;;;19.21;52.39;100751.78;6210201;23;20069;-74
2021/07/31 20:43:32;;;;;;;15.05;7.70;;;;;;;19.20;52.49;100745.53;6237097;23;20471;-74
2021/07/31 20:45:58;;;;;;;9.88;5.43;;;;;;;19.19;52.26;100751.28;6209789;23;20012;-74
2021/07/31 20:48:25;;;;;;;39.83;21.70;;;;;;;19.19;52.62;100756.72;6209627;23;20081;-74
2021/07/31 20:50:51;;;;;;;10.18;5.43;;;;;;;19.15;52.64;100744.88;6209163;23;20004;-74
2021/07/31 20:53:17;;;;;;;3.72;1.50;;;;;;;19.13;52.66;100756.03;6236734;23;20008;-74
2021/07/31 20:55:42;;;;;;;7.78;1.50;;;;;;;19.11;52.83;100754.72;6236040;22;20346;-73
2021/07/31 20:58:08;;;;;;;5.28;1.40;;;;;;;19.01;53.09;100764.69;6236313;23;19996;-74
2021/07/31 21:00:35;;;;;;;3.58;1.25;;;;;;;18.93;53.34;100760.00;6236445;23;20008;-74
2021/07/31 21:03:01;;;;;;;5.13;1.58;;;;;;;18.96;53.25;100767.53;6236041;23;20004;-74
2021/07/31 21:05:27;;;;;;;5.05;1.73;;;;;;;18.98;53.16;100765.31;6236103;22;20000;-73
2021/07/31 21:07:53;;;;;;;4.40;1.85;;;;;;;18.90;53.44;100767.94;6235529;23;20392;-74
2021/07/31 21:10:19;;;;;;;4.78;1.90;;;;;;;18.87;53.68;100766.66;6236340;23;20008;-74
2021/07/31 21:12:44;;;;;;;2.65;1.65;;;;;;;18.81;53.79;100773.25;6235804;23;20012;-74
2021/07/31 21:15:10;;;;;;;2.03;1.50;;;;;;;18.74;53.96;100759.31;6237046;22;20089;-74
2021/07/31 21:17:37;;;;;;;4.63;1.48;;;;;;;18.73;54.06;100760.41;6236128;23;20433;-74
2021/07/31 21:20:04;;;;;;;3.42;1.63;;;;;;;18.64;54.41;100764.91;6208649;23;20012;-74
2021/07/31 21:22:30;;;;;;;3.53;1.85;;;;;;;18.66;54.45;100758.06;6209633;23;20008;-74
2021/07/31 21:24:55;;;;;;;1.35;1.23;;;;;;;18.70;54.19;100758.31;6235150;23;20593;-74
2021/07/31 21:27:21;;;;;;;3.13;1.65;;;;;;;18.68;54.38;100758.59;6210106;23;20046;-74
2021/07/31 21:29:46;;;;;;;2.92;1.40;;;;;;;18.68;54.36;100761.31;6235521;23;20650;-74
2021/07/31 21:32:12;;;;;;;1.95;1.42;;;;;;;18.62;54.96;100765.19;6236627;23;20014;-74
2021/07/31 21:34:38;;;;;;;1.35;1.15;;;;;;;18.57;54.95;100750.94;6235455;23;20011;-74
2021/07/31 21:37:03;;;;;;;3.90;2.05;;;;;;;18.45;55.49;100758.75;6235322;22;20014;-74
2021/07/31 21:39:32;;;;;;;4.45;2.13;;;;;;;18.43;55.33;100770.72;6235519;23;20043;-74
2021/07/31 21:41:58;;;;;;;2.75;1.58;;;;;;;18.45;55.24;100764.19;6209335;23;20618;-73
2021/07/31 21:44:24;;;;;;;3.33;1.40;;;;;;;18.49;55.12;100778.75;6236848;23;20004;-74
2021/07/31 21:46:49;;;;;;;2.17;1.23;;;;;;;18.40;55.28;100773.22;6208796;23;20011;-74
2021/07/31 21:49:15;;;;;;;2.65;1.55;;;;;;;18.34;55.69;100772.53;6235191;23;20443;-74
2021/07/31 21:51:41;;;;;;;2.35;1.60;;;;;;;18.38;55.41;100773.53;6235393;23;20008;-74
2021/07/31 21:54:07;;;;;;;2.58;1.58;;;;;;;18.32;55.90;100776.63;6236575;23;20023;-74
2021/07/31 21:56:32;;;;;;;2.78;1.65;;;;;;;18.31;56.15;100783.97;6235917;22;20352;-74
2021/07/31 21:58:58;;;;;;;3.00;1.40;;;;;;;18.26;56.41;100770.47;6234560;23;20008;-74
2021/07/31 22:01:23;;;;;;;4.45;1.35;;;;;;;18.14;56.87;100772.88;6209416;23;20008;-73
2021/07/31 22:03:50;;;;;;;2.78;1.70;;;;;;;18.18;56.80;100773.88;6233145;23;20031;-73
2021/07/31 22:06:20;;;;;;;3.72;1.92;;;;;;;18.19;56.83;100769.28;6235822;22;20004;-73
2021/07/31 22:08:46;;;;;;;2.50;1.60;;;;;;;18.05;57.13;100782.78;6233180;23;20000;-74
2021/07/31 22:11:11;;;;;;;3.17;1.52;;;;;;;18.11;57.12;100762.59;6235791;23;20034;-74
2021/07/31 22:13:37;;;;;;;2.88;1.67;;;;;;;18.00;57.30;100775.56;6233067;23;20004;-73
2021/07/31 22:16:03;;;;;;;4.57;1.42;;;;;;;17.79;58.52;100777.78;6235932;22;20036;-74
2021/07/31 22:18:28;;;;;;;3.42;1.85;;;;;;;17.73;58.71;100778.16;6208561;23;20000;-74
2021/07/31 22:20:54;;;;;;;3.70;1.83;;;;;;;17.67;58.88;100773.88;6210287;23;20349;-74
2021/07/31 22:23:20;;;;;;;3.40;1.85;;;;;;;17.78;58.03;100781.59;6238086;23;20065;-73
2021/07/31 22:25:45;;;;;;;2.60;1.50;;;;;;;17.77;58.01;100777.28;6237538;22;20008;-74
2021/07/31 22:28:11;;;;;;;3.95;1.67;;;;;;;17.73;58.27;100775.44;6211305;23;20026;-74
2021/07/31 22:30:36;;;;;;;2.97;1.48;;;;;;;17.55;59.11;100771.63;6210889;23;20413;-74
2021/07/31 22:33:02;;;;;;;2.95;1.63;;;;;;;17.62;58.61;100772.06;6238054;23;20012;-74
2021/07/31 22:35:28;;;;;;;4.18;1.55;;;;;;;17.57;59.10;100777.53;6237952;22;20004;-73
2021/07/31 22:37:54;;;;;;;3.20;1.50;;;;;;;17.55;59.20;100777.03;6210271;23;20024;-74
2021/07/31 22:40:20;;;;;;;1.80;1.70;;;;;;;17.47;59.49;100769.59;6237414;23;20004;-74
2021/07/31 22:42:46;;;;;;;4.47;2.08;;;;;;;17.35;60.29;100770.00;6237341;23;20427;-74
2021/07/31 22:45:11;;;;;;;2.28;1.60;;;;;;;17.45;59.67;100774.50;6237788;22;20348;-74
2021/07/31 22:47:37;;;;;;;4.00;1.80;;;;;;;17.41;60.22;100781.56;6237280;23;20000;-73
2021/07/31 22:50:05;;;;;;;4.03;1.60;;;;;;;17.47;59.62;100780.41;6236834;23;20007;-73
2021/07/31 22:52:31;;;;;;;3.65;1.60;;;;;;;17.37;60.34;100783.25;6210995;23;20004;-74
2021/07/31 22:54:56;;;;;;;5.82;1.65;;;;;;;17.42;59.87;100778.59;6237191;22;20159;-73
2021/07/31 22:57:22;;;;;;;2.20;2.00;;;;;;;17.41;60.20;100768.81;6212705;23;20000;-75
2021/07/31 22:59:47;;;;;;;3.00;1.80;;;;;;;17.33;60.54;100779.53;6241235;23;20015;-75
2021/07/31 23:02:13;;;;;;;4.75;1.80;;;;;;;17.33;60.42;100771.41;6241790;23;20000;-75
2021/07/31 23:04:38;;;;;;;2.17;1.92;;;;;;;17.32;60.30;100775.22;6241544;23;20007;-76
2021/07/31 23:07:04;;;;;;;2.50;2.03;;;;;;;17.30;60.55;100774.69;6241701;22;20026;-75
2021/07/31 23:09:30;;;;;;;4.25;1.95;;;;;;;17.35;60.32;100769.22;6212106;23;20083;-75
2021/07/31 23:11:59;;;;;;;3.15;1.60;;;;;;;17.34;60.33;100765.69;6241548;23;20015;-75
2021/07/31 23:14:32;;;;;;;4.88;2.00;;;;;;;17.29;60.88;100773.09;6214792;23;20595;-76
2021/07/31 23:16:58;;;;;;;2.80;1.63;;;;;;;17.25;60.50;100775.59;6241116;22;20665;-76
2021/07/31 23:19:24;;;;;;;2.42;1.80;;;;;;;17.19;61.01;100764.00;6241223;23;20014;-76
2021/07/31 23:21:50;;;;;;;2.53;1.65;;;;;;;17.11;61.72;100764.66;6214262;23;20019;-76
2021/07/31 23:24:16;;;;;;;3.22;1.90;;;;;;;17.11;61.41;100763.84;6241700;23;20090;-76
2021/07/31 23:26:43;;;;;;;3.40;1.80;;;;;;;17.12;61.48;100779.00;6214275;23;20011;-76
2021/07/31 23:29:08;;;;;;;3.92;1.70;;;;;;;17.03;61.81;100778.81;6241322;23;19996;-76
2021/07/31 23:31:34;;;;;;;3.08;1.80;;;;;;;16.98;62.40;100772.69;6241044;23;20000;-76
2021/07/31 23:33:59;;;;;;;3.55;1.63;;;;;;;16.97;62.03;100779.19;6240990;23;20004;-76
2021/07/31 23:36:25;;;;;;;2.65;1.67;;;;;;;16.91;62.09;100787.38;6213583;23;20012;-76
2021/07/31 23:38:50;;;;;;;2.50;2.20;;;;;;;16.86;62.16;100775.78;6241574;23;20409;-77
2021/07/31 23:41:17;;;;;;;2.95;2.00;;;;;;;16.78;62.60;100779.94;6241375;23;20004;-76
2021/07/31 23:43:43;;;;;;;3.20;2.08;;;;;;;16.56;63.48;100783.16;6241842;23;20462;-76
2021/07/31 23:46:10;;;;;;;3.92;2.30;;;;;;;16.40;63.88;100787.09;6241912;22;20007;-76
2021/07/31 23:48:35;;;;;;;3.75;2.13;;;;;;;16.48;63.67;100791.06;6241326;23;19996;-76
2021/07/31 23:51:00;;;;;;;5.50;2.33;;;;;;;16.38;63.75;100785.78;6241638;23;20031;-76
2021/07/31 23:53:26;;;;;;;3.90;2.47;;;;;;;16.29;64.45;100789.09;6241514;23;20057;-76
2021/07/31 23:55:52;;;;;;;5.15;2.40;;;;;;;16.27;64.50;100790.47;6241734;22;19996;-76
2021/07/31 23:58:17;;;;;;;3.72;2.00;;;;;;;16.23;64.61;100794.81;6241150;23;19997;-76
